sensor_id;sensor_type;location;lat;lon;timestamp;P1;P2;P0
77515;PMS5003;66627;29.424;-98.496;2023-02-14T00:00:38;4;3;
77515;PMS5003;66627;29.424;-98.496;2023-02-14T00:03:03;2;2;
77515;PMS5003;66627;29.424;-98.496;2023-02-14T00:05:28;3;3;
77515;PMS5003;66627;29.424;-98.496;2023-02-14T00:07:53;2;2;
77515;PMS5003;66627;29.424;-98.496;2023-02-14T00:10:19;3;3;
77515;PMS5003;66627;29.424;-98.496;2023-02-14T00:12:44;4;4;
77515;PMS5003;66627;29.424;-98.496;2023-02-14T00:15:09;1;1;
77515;PMS5003;66627;29.424;-98.496;2023-02-14T00:17:34;5;3;
77515;PMS5003;66627;29.424;-98.496;2023-02-14T00:19:59;3;3;
77515;PMS5003;66627;29.424;-98.496;2023-02-14T00:22:25;3;3;
77515;PMS5003;66627;29.424;-98.496;2023-02-14T00:24:50;2;2;
77515;PMS5003;66627;29.424;-98.496;2023-02-14T00:27:15;4;4;
77515;PMS5003;66627;29.424;-98.496;2023-02-14T00:29:41;9;7;
77515;PMS5003;66627;29.424;-98.496;2023-02-14T00:32:06;7;5;
77515;PMS5003;66627;29.424;-98.496;2023-02-14T00:34:31;3;3;
77515;PMS5003;66627;29.424;-98.496;2023-02-14T00:36:56;4;4;
77515;PMS5003;66627;29.424;-98.496;2023-02-14T00:39:22;1;1;
77515;PMS5003;66627;29.424;-98.496;2023-02-14T00:41:47;1;1;
77515;PMS5003;66627;29.424;-98.496;2023-02-14T00:44:12;4;4;
77515;PMS5003;66627;29.424;-98.496;2023-02-14T00:46:37;5;5;
77515;PMS5003;66627;29.424;-98.496;2023-02-14T00:49:03;7;5;
77515;PMS5003;66627;29.424;-98.496;2023-02-14T00:51:28;4;4;
77515;PMS5003;66627;29.424;-98.496;2023-02-14T00:53:53;7;7;
77515;PMS5003;66627;29.424;-98.496;2023-02-14T00:56:18;5;5;
77515;PMS5003;66627;29.424;-98.496;2023-02-14T00:58:43;7;7;
77515;PMS5003;66627;29.424;-98.496;2023-02-14T01:01:09;3;3;
77515;PMS5003;66627;29.424;-98.496;2023-02-14T01:03:34;6;4;
77515;PMS5003;66627;29.424;-98.496;2023-02-14T01:05:59;7;7;
77515;PMS5003;66627;29.424;-98.496;2023-02-14T01:08:24;1;1;
77515;PMS5003;66627;29.424;-98.496;2023-02-14T01:10:49;3;3;
77515;PMS5003;66627;29.424;-98.496;2023-02-14T01:13:14;4;4;
77515;PMS5003;66627;29.424;-98.496;2023-02-14T01:15:40;3;3;
77515;PMS5003;66627;29.424;-98.496;2023-02-14T01:18:05;3;3;
77515;PMS5003;66627;29.424;-98.496;2023-02-14T01:20:30;4;3;
77515;PMS5003;66627;29.424;-98.496;2023-02-14T01:22:55;4;3;
77515;PMS5003;66627;29.424;-98.496;2023-02-14T01:25:21;3;2;
77515;PMS5003;66627;29.424;-98.496;2023-02-14T01:27:45;3;3;
77515;PMS5003;66627;29.424;-98.496;2023-02-14T01:30:11;4;3;
77515;PMS5003;66627;29.424;-98.496;2023-02-14T01:32:36;2;2;
77515;PMS5003;66627;29.424;-98.496;2023-02-14T01:35:01;4;3;
77515;PMS5003;66627;29.424;-98.496;2023-02-14T01:37:26;3;2;
77515;PMS5003;66627;29.424;-98.496;2023-02-14T01:39:51;2;2;
77515;PMS5003;66627;29.424;-98.496;2023-02-14T01:42:17;1;0;
77515;PMS5003;66627;29.424;-98.496;2023-02-14T01:47:07;3;3;
77515;PMS5003;66627;29.424;-98.496;2023-02-14T01:49:33;2;2;
77515;PMS5003;66627;29.424;-98.496;2023-02-14T01:51:59;5;3;
77515;PMS5003;66627;29.424;-98.496;2023-02-14T01:54:23;2;2;
77515;PMS5003;66627;29.424;-98.496;2023-02-14T01:56:48;3;3;
77515;PMS5003;66627;29.424;-98.496;2023-02-14T01:59:13;3;3;
77515;PMS5003;66627;29.424;-98.496;2023-02-14T02:01:38;2;2;
77515;PMS5003;66627;29.424;-98.496;2023-02-14T02:04:05;3;3;
77515;PMS5003;66627;29.424;-98.496;2023-02-14T02:06:29;1;1;
77515;PMS5003;66627;29.424;-98.496;2023-02-14T02:08:56;2;2;
77515;PMS5003;66627;29.424;-98.496;2023-02-14T02:11:19;4;4;
77515;PMS5003;66627;29.424;-98.496;2023-02-14T02:13:44;2;2;
77515;PMS5003;66627;29.424;-98.496;2023-02-14T02:16:13;2;2;
77515;PMS5003;66627;29.424;-98.496;2023-02-14T02:18:38;3;3;
77515;PMS5003;66627;29.424;-98.496;2023-02-14T02:23:30;3;3;
77515;PMS5003;66627;29.424;-98.496;2023-02-14T02:25:58;4;3;
77515;PMS5003;66627;29.424;-98.496;2023-02-14T02:28:21;5;4;
77515;PMS5003;66627;29.424;-98.496;2023-02-14T02:35:39;6;4;
77515;PMS5003;66627;29.424;-98.496;2023-02-14T02:38:00;4;4;
77515;PMS5003;66627;29.424;-98.496;2023-02-14T02:40:27;3;3;
77515;PMS5003;66627;29.424;-98.496;2023-02-14T02:42:48;4;4;
77515;PMS5003;66627;29.424;-98.496;2023-02-14T02:45:12;4;4;
77515;PMS5003;66627;29.424;-98.496;2023-02-14T02:47:37;2;2;
77515;PMS5003;66627;29.424;-98.496;2023-02-14T02:50:03;5;4;
77515;PMS5003;66627;29.424;-98.496;2023-02-14T02:52:29;2;2;
77515;PMS5003;66627;29.424;-98.496;2023-02-14T02:54:53;2;2;
77515;PMS5003;66627;29.424;-98.496;2023-02-14T02:57:19;4;4;
77515;PMS5003;66627;29.424;-98.496;2023-02-14T02:59:43;4;4;
77515;PMS5003;66627;29.424;-98.496;2023-02-14T03:02:08;5;5;
77515;PMS5003;66627;29.424;-98.496;2023-02-14T03:04:34;5;3;
77515;PMS5003;66627;29.424;-98.496;2023-02-14T03:06:59;4;4;
77515;PMS5003;66627;29.424;-98.496;2023-02-14T03:11:57;4;3;
77515;PMS5003;66627;29.424;-98.496;2023-02-14T03:14:16;2;2;
77515;PMS5003;66627;29.424;-98.496;2023-02-14T03:16:40;3;3;
77515;PMS5003;66627;29.424;-98.496;2023-02-14T03:19:09;3;3;
77515;PMS5003;66627;29.424;-98.496;2023-02-14T03:21:30;4;4;
77515;PMS5003;66627;29.424;-98.496;2023-02-14T03:23:56;4;3;
77515;PMS5003;66627;29.424;-98.496;2023-02-14T03:26:21;3;3;
77515;PMS5003;66627;29.424;-98.496;2023-02-14T03:28:45;3;3;
77515;PMS5003;66627;29.424;-98.496;2023-02-14T03:31:11;3;2;
77515;PMS5003;66627;29.424;-98.496;2023-02-14T03:33:37;3;3;
77515;PMS5003;66627;29.424;-98.496;2023-02-14T03:36:02;4;3;
77515;PMS5003;66627;29.424;-98.496;2023-02-14T03:38:26;4;4;
77515;PMS5003;66627;29.424;-98.496;2023-02-14T03:40:51;4;4;
77515;PMS5003;66627;29.424;-98.496;2023-02-14T03:43:17;3;3;
77515;PMS5003;66627;29.424;-98.496;2023-02-14T03:45:42;3;3;
77515;PMS5003;66627;29.424;-98.496;2023-02-14T03:48:07;3;3;
77515;PMS5003;66627;29.424;-98.496;2023-02-14T03:50:32;3;3;
77515;PMS5003;66627;29.424;-98.496;2023-02-14T03:52:57;4;4;
77515;PMS5003;66627;29.424;-98.496;2023-02-14T03:55:23;3;3;
77515;PMS5003;66627;29.424;-98.496;2023-02-14T03:57:49;2;2;
77515;PMS5003;66627;29.424;-98.496;2023-02-14T04:00:13;2;2;
77515;PMS5003;66627;29.424;-98.496;2023-02-14T04:02:38;4;3;
77515;PMS5003;66627;29.424;-98.496;2023-02-14T04:05:04;2;2;
77515;PMS5003;66627;29.424;-98.496;2023-02-14T04:07:28;4;2;
77515;PMS5003;66627;29.424;-98.496;2023-02-14T04:09:53;3;3;
77515;PMS5003;66627;29.424;-98.496;2023-02-14T04:12:19;2;2;
77515;PMS5003;66627;29.424;-98.496;2023-02-14T04:14:43;5;4;
77515;PMS5003;66627;29.424;-98.496;2023-02-14T04:17:09;5;4;
77515;PMS5003;66627;29.424;-98.496;2023-02-14T04:19:34;3;3;
77515;PMS5003;66627;29.424;-98.496;2023-02-14T04:21:59;3;3;
77515;PMS5003;66627;29.424;-98.496;2023-02-14T04:24:24;4;2;
77515;PMS5003;66627;29.424;-98.496;2023-02-14T04:26:49;4;4;
77515;PMS5003;66627;29.424;-98.496;2023-02-14T04:29:14;3;3;
77515;PMS5003;66627;29.424;-98.496;2023-02-14T04:31:40;3;3;
77515;PMS5003;66627;29.424;-98.496;2023-02-14T04:34:05;3;3;
77515;PMS5003;66627;29.424;-98.496;2023-02-14T04:36:30;7;7;
77515;PMS5003;66627;29.424;-98.496;2023-02-14T04:38:55;3;3;
77515;PMS5003;66627;29.424;-98.496;2023-02-14T04:41:20;4;4;
77515;PMS5003;66627;29.424;-98.496;2023-02-14T04:43:46;4;4;
77515;PMS5003;66627;29.424;-98.496;2023-02-14T04:46:11;4;4;
77515;PMS5003;66627;29.424;-98.496;2023-02-14T04:48:36;4;2;
77515;PMS5003;66627;29.424;-98.496;2023-02-14T04:51:01;5;5;
77515;PMS5003;66627;29.424;-98.496;2023-02-14T04:53:26;5;4;
77515;PMS5003;66627;29.424;-98.496;2023-02-14T04:55:52;3;3;
77515;PMS5003;66627;29.424;-98.496;2023-02-14T04:58:17;4;4;
77515;PMS5003;66627;29.424;-98.496;2023-02-14T05:00:42;4;4;
77515;PMS5003;66627;29.424;-98.496;2023-02-14T05:03:07;3;3;
77515;PMS5003;66627;29.424;-98.496;2023-02-14T05:05:32;2;2;
77515;PMS5003;66627;29.424;-98.496;2023-02-14T05:07:57;5;4;
77515;PMS5003;66627;29.424;-98.496;2023-02-14T05:10:22;2;2;
77515;PMS5003;66627;29.424;-98.496;2023-02-14T05:12:48;4;4;
77515;PMS5003;66627;29.424;-98.496;2023-02-14T05:15:13;5;4;
77515;PMS5003;66627;29.424;-98.496;2023-02-14T05:17:38;4;4;
77515;PMS5003;66627;29.424;-98.496;2023-02-14T05:20:04;4;4;
77515;PMS5003;66627;29.424;-98.496;2023-02-14T05:22:29;6;6;
77515;PMS5003;66627;29.424;-98.496;2023-02-14T05:24:54;3;3;
77515;PMS5003;66627;29.424;-98.496;2023-02-14T05:27:19;5;5;
77515;PMS5003;66627;29.424;-98.496;2023-02-14T05:29:44;7;5;
77515;PMS5003;66627;29.424;-98.496;2023-02-14T05:32:10;5;4;
77515;PMS5003;66627;29.424;-98.496;2023-02-14T05:34:35;4;3;
77515;PMS5003;66627;29.424;-98.496;2023-02-14T05:37:00;4;4;
77515;PMS5003;66627;29.424;-98.496;2023-02-14T05:39:25;5;5;
77515;PMS5003;66627;29.424;-98.496;2023-02-14T05:41:50;3;3;
77515;PMS5003;66627;29.424;-98.496;2023-02-14T05:44:16;4;4;
77515;PMS5003;66627;29.424;-98.496;2023-02-14T05:46:41;3;3;
77515;PMS5003;66627;29.424;-98.496;2023-02-14T05:49:06;4;4;
77515;PMS5003;66627;29.424;-98.496;2023-02-14T05:51:31;5;5;
77515;PMS5003;66627;29.424;-98.496;2023-02-14T05:53:56;6;5;
77515;PMS5003;66627;29.424;-98.496;2023-02-14T05:56:21;5;5;
77515;PMS5003;66627;29.424;-98.496;2023-02-14T05:58:47;3;3;
77515;PMS5003;66627;29.424;-98.496;2023-02-14T06:01:12;5;5;
77515;PMS5003;66627;29.424;-98.496;2023-02-14T06:03:37;4;3;
77515;PMS5003;66627;29.424;-98.496;2023-02-14T06:06:03;4;4;
77515;PMS5003;66627;29.424;-98.496;2023-02-14T06:08:28;6;6;
77515;PMS5003;66627;29.424;-98.496;2023-02-14T06:10:53;5;5;
77515;PMS5003;66627;29.424;-98.496;2023-02-14T06:13:18;5;5;
77515;PMS5003;66627;29.424;-98.496;2023-02-14T06:15:43;3;3;
77515;PMS5003;66627;29.424;-98.496;2023-02-14T06:18:09;6;4;
77515;PMS5003;66627;29.424;-98.496;2023-02-14T06:20:34;5;5;
77515;PMS5003;66627;29.424;-98.496;2023-02-14T06:22:59;6;6;
77515;PMS5003;66627;29.424;-98.496;2023-02-14T06:25:24;5;5;
77515;PMS5003;66627;29.424;-98.496;2023-02-14T06:27:49;4;4;
77515;PMS5003;66627;29.424;-98.496;2023-02-14T06:30:15;5;3;
77515;PMS5003;66627;29.424;-98.496;2023-02-14T06:32:40;6;4;
77515;PMS5003;66627;29.424;-98.496;2023-02-14T06:35:06;4;4;
77515;PMS5003;66627;29.424;-98.496;2023-02-14T06:37:31;5;5;
77515;PMS5003;66627;29.424;-98.496;2023-02-14T06:39:57;5;5;
77515;PMS5003;66627;29.424;-98.496;2023-02-14T06:42:22;4;4;
77515;PMS5003;66627;29.424;-98.496;2023-02-14T06:44:47;7;5;
77515;PMS5003;66627;29.424;-98.496;2023-02-14T06:47:13;9;5;
77515;PMS5003;66627;29.424;-98.496;2023-02-14T06:49:38;4;4;
77515;PMS5003;66627;29.424;-98.496;2023-02-14T06:52:03;6;5;
77515;PMS5003;66627;29.424;-98.496;2023-02-14T06:54:28;7;6;
77515;PMS5003;66627;29.424;-98.496;2023-02-14T06:56:53;4;4;
77515;PMS5003;66627;29.424;-98.496;2023-02-14T06:59:19;6;6;
77515;PMS5003;66627;29.424;-98.496;2023-02-14T07:01:44;4;4;
77515;PMS5003;66627;29.424;-98.496;2023-02-14T07:04:09;5;5;
77515;PMS5003;66627;29.424;-98.496;2023-02-14T07:06:35;7;3;
77515;PMS5003;66627;29.424;-98.496;2023-02-14T07:09:00;5;5;
77515;PMS5003;66627;29.424;-98.496;2023-02-14T07:11:26;5;5;
77515;PMS5003;66627;29.424;-98.496;2023-02-14T07:13:51;6;6;
77515;PMS5003;66627;29.424;-98.496;2023-02-14T07:16:16;7;5;
77515;PMS5003;66627;29.424;-98.496;2023-02-14T07:18:41;4;4;
77515;PMS5003;66627;29.424;-98.496;2023-02-14T07:21:06;5;5;
77515;PMS5003;66627;29.424;-98.496;2023-02-14T07:23:32;4;4;
77515;PMS5003;66627;29.424;-98.496;2023-02-14T07:25:57;7;6;
77515;PMS5003;66627;29.424;-98.496;2023-02-14T07:28:22;5;5;
77515;PMS5003;66627;29.424;-98.496;2023-02-14T07:30:47;5;5;
77515;PMS5003;66627;29.424;-98.496;2023-02-14T07:33:12;4;4;
77515;PMS5003;66627;29.424;-98.496;2023-02-14T07:35:37;6;6;
77515;PMS5003;66627;29.424;-98.496;2023-02-14T07:38:03;6;4;
77515;PMS5003;66627;29.424;-98.496;2023-02-14T07:40:28;6;4;
77515;PMS5003;66627;29.424;-98.496;2023-02-14T07:42:54;7;7;
77515;PMS5003;66627;29.424;-98.496;2023-02-14T07:45:19;6;6;
77515;PMS5003;66627;29.424;-98.496;2023-02-14T07:47:44;6;6;
77515;PMS5003;66627;29.424;-98.496;2023-02-14T07:50:09;6;6;
77515;PMS5003;66627;29.424;-98.496;2023-02-14T07:52:34;5;5;
77515;PMS5003;66627;29.424;-98.496;2023-02-14T07:54:59;7;7;
77515;PMS5003;66627;29.424;-98.496;2023-02-14T07:57:25;7;6;
77515;PMS5003;66627;29.424;-98.496;2023-02-14T07:59:50;2;2;
77515;PMS5003;66627;29.424;-98.496;2023-02-14T08:02:15;8;6;
77515;PMS5003;66627;29.424;-98.496;2023-02-14T08:04:40;5;5;
77515;PMS5003;66627;29.424;-98.496;2023-02-14T08:07:05;7;5;
77515;PMS5003;66627;29.424;-98.496;2023-02-14T08:09:30;6;5;
77515;PMS5003;66627;29.424;-98.496;2023-02-14T08:11:56;5;5;
77515;PMS5003;66627;29.424;-98.496;2023-02-14T08:14:21;6;6;
77515;PMS5003;66627;29.424;-98.496;2023-02-14T08:16:46;8;5;
77515;PMS5003;66627;29.424;-98.496;2023-02-14T08:19:12;4;3;
77515;PMS5003;66627;29.424;-98.496;2023-02-14T08:21:38;5;5;
77515;PMS5003;66627;29.424;-98.496;2023-02-14T08:24:03;5;5;
77515;PMS5003;66627;29.424;-98.496;2023-02-14T08:26:28;5;5;
77515;PMS5003;66627;29.424;-98.496;2023-02-14T08:28:53;6;6;
77515;PMS5003;66627;29.424;-98.496;2023-02-14T08:31:21;6;6;
77515;PMS5003;66627;29.424;-98.496;2023-02-14T08:33:43;5;5;
77515;PMS5003;66627;29.424;-98.496;2023-02-14T08:36:08;4;4;
77515;PMS5003;66627;29.424;-98.496;2023-02-14T08:38:34;5;5;
77515;PMS5003;66627;29.424;-98.496;2023-02-14T08:40:59;5;5;
77515;PMS5003;66627;29.424;-98.496;2023-02-14T08:43:24;4;3;
77515;PMS5003;66627;29.424;-98.496;2023-02-14T08:45:51;7;5;
77515;PMS5003;66627;29.424;-98.496;2023-02-14T08:48:14;5;5;
77515;PMS5003;66627;29.424;-98.496;2023-02-14T08:50:40;5;4;
77515;PMS5003;66627;29.424;-98.496;2023-02-14T08:53:05;5;5;
77515;PMS5003;66627;29.424;-98.496;2023-02-14T08:55:30;4;4;
77515;PMS5003;66627;29.424;-98.496;2023-02-14T08:57:56;7;5;
77515;PMS5003;66627;29.424;-98.496;2023-02-14T09:00:21;5;5;
77515;PMS5003;66627;29.424;-98.496;2023-02-14T09:02:49;4;4;
77515;PMS5003;66627;29.424;-98.496;2023-02-14T09:05:11;5;5;
77515;PMS5003;66627;29.424;-98.496;2023-02-14T09:07:36;6;5;
77515;PMS5003;66627;29.424;-98.496;2023-02-14T09:10:02;6;6;
77515;PMS5003;66627;29.424;-98.496;2023-02-14T09:12:27;4;4;
77515;PMS5003;66627;29.424;-98.496;2023-02-14T09:14:52;5;4;
77515;PMS5003;66627;29.424;-98.496;2023-02-14T09:17:18;5;4;
77515;PMS5003;66627;29.424;-98.496;2023-02-14T09:19:43;6;5;
77515;PMS5003;66627;29.424;-98.496;2023-02-14T09:22:09;4;3;
77515;PMS5003;66627;29.424;-98.496;2023-02-14T09:24:34;5;5;
77515;PMS5003;66627;29.424;-98.496;2023-02-14T09:26:59;4;4;
77515;PMS5003;66627;29.424;-98.496;2023-02-14T09:29:25;5;5;
77515;PMS5003;66627;29.424;-98.496;2023-02-14T09:31:51;5;5;
77515;PMS5003;66627;29.424;-98.496;2023-02-14T09:34:14;10;9;
77515;PMS5003;66627;29.424;-98.496;2023-02-14T09:36:40;9;9;
77515;PMS5003;66627;29.424;-98.496;2023-02-14T09:39:05;10;10;
77515;PMS5003;66627;29.424;-98.496;2023-02-14T09:43:57;10;10;
77515;PMS5003;66627;29.424;-98.496;2023-02-14T09:46:22;11;9;
77515;PMS5003;66627;29.424;-98.496;2023-02-14T09:48:46;8;7;
77515;PMS5003;66627;29.424;-98.496;2023-02-14T09:51:12;9;9;
77515;PMS5003;66627;29.424;-98.496;2023-02-14T09:53:39;12;9;
77515;PMS5003;66627;29.424;-98.496;2023-02-14T09:56:04;12;10;
77515;PMS5003;66627;29.424;-98.496;2023-02-14T09:58:29;10;9;
77515;PMS5003;66627;29.424;-98.496;2023-02-14T10:00:54;7;7;
77515;PMS5003;66627;29.424;-98.496;2023-02-14T10:05:44;8;8;
77515;PMS5003;66627;29.424;-98.496;2023-02-14T10:08:11;12;9;
77515;PMS5003;66627;29.424;-98.496;2023-02-14T10:10:35;11;11;
77515;PMS5003;66627;29.424;-98.496;2023-02-14T10:13:03;8;8;
77515;PMS5003;66627;29.424;-98.496;2023-02-14T10:15:25;9;9;
77515;PMS5003;66627;29.424;-98.496;2023-02-14T10:17:51;9;9;
77515;PMS5003;66627;29.424;-98.496;2023-02-14T10:20:19;10;10;
77515;PMS5003;66627;29.424;-98.496;2023-02-14T10:22:41;9;8;
77515;PMS5003;66627;29.424;-98.496;2023-02-14T10:25:07;11;9;
77515;PMS5003;66627;29.424;-98.496;2023-02-14T10:27:32;12;9;
77515;PMS5003;66627;29.424;-98.496;2023-02-14T10:29:56;12;9;
77515;PMS5003;66627;29.424;-98.496;2023-02-14T10:32:23;9;9;
77515;PMS5003;66627;29.424;-98.496;2023-02-14T10:34:48;8;8;
77515;PMS5003;66627;29.424;-98.496;2023-02-14T10:37:17;7;7;
77515;PMS5003;66627;29.424;-98.496;2023-02-14T10:39:43;8;8;
77515;PMS5003;66627;29.424;-98.496;2023-02-14T10:42:05;10;10;
77515;PMS5003;66627;29.424;-98.496;2023-02-14T10:44:32;9;7;
77515;PMS5003;66627;29.424;-98.496;2023-02-14T10:46:55;7;7;
77515;PMS5003;66627;29.424;-98.496;2023-02-14T10:51:45;7;7;
77515;PMS5003;66627;29.424;-98.496;2023-02-14T10:54:14;9;7;
77515;PMS5003;66627;29.424;-98.496;2023-02-14T10:56:37;9;9;
77515;PMS5003;66627;29.424;-98.496;2023-02-14T10:59:00;8;8;
77515;PMS5003;66627;29.424;-98.496;2023-02-14T11:01:25;11;9;
77515;PMS5003;66627;29.424;-98.496;2023-02-14T11:03:52;7;7;
77515;PMS5003;66627;29.424;-98.496;2023-02-14T11:06:16;5;5;
77515;PMS5003;66627;29.424;-98.496;2023-02-14T11:08:42;8;8;
77515;PMS5003;66627;29.424;-98.496;2023-02-14T11:11:10;6;6;
77515;PMS5003;66627;29.424;-98.496;2023-02-14T11:13:33;10;7;
77515;PMS5003;66627;29.424;-98.496;2023-02-14T11:15:58;9;8;
77515;PMS5003;66627;29.424;-98.496;2023-02-14T11:18:23;8;8;
77515;PMS5003;66627;29.424;-98.496;2023-02-14T11:25:38;6;6;
77515;PMS5003;66627;29.424;-98.496;2023-02-14T11:28:04;6;6;
77515;PMS5003;66627;29.424;-98.496;2023-02-14T11:30:30;9;8;
77515;PMS5003;66627;29.424;-98.496;2023-02-14T11:32:54;9;7;
77515;PMS5003;66627;29.424;-98.496;2023-02-14T11:35:19;9;7;
77515;PMS5003;66627;29.424;-98.496;2023-02-14T11:37:45;8;8;
77515;PMS5003;66627;29.424;-98.496;2023-02-14T11:40:22;6;6;
77515;PMS5003;66627;29.424;-98.496;2023-02-14T11:42:36;5;5;
77515;PMS5003;66627;29.424;-98.496;2023-02-14T11:44:59;7;7;
77515;PMS5003;66627;29.424;-98.496;2023-02-14T11:47:25;7;7;
77515;PMS5003;66627;29.424;-98.496;2023-02-14T11:49:53;6;6;
77515;PMS5003;66627;29.424;-98.496;2023-02-14T11:52:15;7;6;
77515;PMS5003;66627;29.424;-98.496;2023-02-14T11:54:40;6;6;
77515;PMS5003;66627;29.424;-98.496;2023-02-14T11:57:06;6;6;
77515;PMS5003;66627;29.424;-98.496;2023-02-14T11:59:32;8;6;
77515;PMS5003;66627;29.424;-98.496;2023-02-14T12:01:56;7;7;
77515;PMS5003;66627;29.424;-98.496;2023-02-14T12:04:22;8;8;
77515;PMS5003;66627;29.424;-98.496;2023-02-14T12:06:47;8;8;
77515;PMS5003;66627;29.424;-98.496;2023-02-14T12:09:12;6;6;
77515;PMS5003;66627;29.424;-98.496;2023-02-14T12:11:37;9;8;
77515;PMS5003;66627;29.424;-98.496;2023-02-14T12:14:02;6;6;
77515;PMS5003;66627;29.424;-98.496;2023-02-14T12:16:27;5;5;
77515;PMS5003;66627;29.424;-98.496;2023-02-14T12:18:53;10;9;
77515;PMS5003;66627;29.424;-98.496;2023-02-14T12:23:44;8;8;
77515;PMS5003;66627;29.424;-98.496;2023-02-14T12:26:11;7;7;
77515;PMS5003;66627;29.424;-98.496;2023-02-14T12:28:33;7;6;
77515;PMS5003;66627;29.424;-98.496;2023-02-14T12:30:58;9;9;
77515;PMS5003;66627;29.424;-98.496;2023-02-14T12:33:23;6;6;
77515;PMS5003;66627;29.424;-98.496;2023-02-14T12:35:51;8;8;
77515;PMS5003;66627;29.424;-98.496;2023-02-14T12:38:15;7;7;
77515;PMS5003;66627;29.424;-98.496;2023-02-14T12:40:42;9;7;
77515;PMS5003;66627;29.424;-98.496;2023-02-14T12:43:14;8;7;
77515;PMS5003;66627;29.424;-98.496;2023-02-14T12:45:33;10;9;
77515;PMS5003;66627;29.424;-98.496;2023-02-14T12:47:56;9;8;
77515;PMS5003;66627;29.424;-98.496;2023-02-14T12:50:22;10;9;
77515;PMS5003;66627;29.424;-98.496;2023-02-14T12:52:48;10;7;
77515;PMS5003;66627;29.424;-98.496;2023-02-14T12:57:38;8;8;
77515;PMS5003;66627;29.424;-98.496;2023-02-14T13:00:05;8;8;
77515;PMS5003;66627;29.424;-98.496;2023-02-14T13:07:19;13;13;
77515;PMS5003;66627;29.424;-98.496;2023-02-14T13:09:44;8;8;
77515;PMS5003;66627;29.424;-98.496;2023-02-14T13:12:12;10;10;
77515;PMS5003;66627;29.424;-98.496;2023-02-14T13:14:41;12;9;
77515;PMS5003;66627;29.424;-98.496;2023-02-14T13:17:01;10;9;
77515;PMS5003;66627;29.424;-98.496;2023-02-14T13:19:28;8;8;
77515;PMS5003;66627;29.424;-98.496;2023-02-14T13:21:48;9;7;
77515;PMS5003;66627;29.424;-98.496;2023-02-14T13:24:15;7;6;
77515;PMS5003;66627;29.424;-98.496;2023-02-14T13:26:39;10;9;
77515;PMS5003;66627;29.424;-98.496;2023-02-14T13:29:06;10;10;
77515;PMS5003;66627;29.424;-98.496;2023-02-14T13:31:29;9;9;
77515;PMS5003;66627;29.424;-98.496;2023-02-14T13:33:56;9;9;
77515;PMS5003;66627;29.424;-98.496;2023-02-14T13:36:19;10;10;
77515;PMS5003;66627;29.424;-98.496;2023-02-14T13:38:46;13;11;
77515;PMS5003;66627;29.424;-98.496;2023-02-14T13:41:11;9;8;
77515;PMS5003;66627;29.424;-98.496;2023-02-14T13:43:45;11;9;
77515;PMS5003;66627;29.424;-98.496;2023-02-14T13:46:01;6;6;
77515;PMS5003;66627;29.424;-98.496;2023-02-14T13:48:27;10;10;
77515;PMS5003;66627;29.424;-98.496;2023-02-14T13:50:53;9;8;
77515;PMS5003;66627;29.424;-98.496;2023-02-14T13:55:42;11;7;
77515;PMS5003;66627;29.424;-98.496;2023-02-14T13:58:13;8;7;
77515;PMS5003;66627;29.424;-98.496;2023-02-14T14:00:34;11;9;
77515;PMS5003;66627;29.424;-98.496;2023-02-14T14:02:57;9;8;
77515;PMS5003;66627;29.424;-98.496;2023-02-14T14:07:48;8;8;
77515;PMS5003;66627;29.424;-98.496;2023-02-14T14:10:13;8;8;
77515;PMS5003;66627;29.424;-98.496;2023-02-14T14:12:40;6;5;
77515;PMS5003;66627;29.424;-98.496;2023-02-14T14:15:11;10;9;
77515;PMS5003;66627;29.424;-98.496;2023-02-14T14:17:30;8;8;
77515;PMS5003;66627;29.424;-98.496;2023-02-14T14:19:56;11;10;
77515;PMS5003;66627;29.424;-98.496;2023-02-14T14:22:20;13;13;
77515;PMS5003;66627;29.424;-98.496;2023-02-14T14:24:52;8;8;
77515;PMS5003;66627;29.424;-98.496;2023-02-14T14:27:12;10;9;
77515;PMS5003;66627;29.424;-98.496;2023-02-14T14:29:36;11;8;
77515;PMS5003;66627;29.424;-98.496;2023-02-14T14:34:26;11;9;
77515;PMS5003;66627;29.424;-98.496;2023-02-14T14:41:41;8;8;
77515;PMS5003;66627;29.424;-98.496;2023-02-14T14:44:06;9;9;
77515;PMS5003;66627;29.424;-98.496;2023-02-14T14:46:31;9;8;
77515;PMS5003;66627;29.424;-98.496;2023-02-14T14:48:57;9;6;
77515;PMS5003;66627;29.424;-98.496;2023-02-14T14:51:23;8;8;
77515;PMS5003;66627;29.424;-98.496;2023-02-14T14:53:49;10;9;
77515;PMS5003;66627;29.424;-98.496;2023-02-14T14:56:17;12;9;
77515;PMS5003;66627;29.424;-98.496;2023-02-14T14:58:39;8;8;
77515;PMS5003;66627;29.424;-98.496;2023-02-14T15:01:04;9;9;
77515;PMS5003;66627;29.424;-98.496;2023-02-14T15:03:29;9;8;
77515;PMS5003;66627;29.424;-98.496;2023-02-14T15:08:20;10;9;
77515;PMS5003;66627;29.424;-98.496;2023-02-14T15:10:46;10;10;
77515;PMS5003;66627;29.424;-98.496;2023-02-14T15:13:10;6;6;
77515;PMS5003;66627;29.424;-98.496;2023-02-14T15:15:34;10;10;
77515;PMS5003;66627;29.424;-98.496;2023-02-14T15:18:02;8;8;
77515;PMS5003;66627;29.424;-98.496;2023-02-14T15:20:25;8;8;
77515;PMS5003;66627;29.424;-98.496;2023-02-14T15:22:50;8;8;
77515;PMS5003;66627;29.424;-98.496;2023-02-14T15:25:16;8;8;
77515;PMS5003;66627;29.424;-98.496;2023-02-14T15:27:40;9;8;
77515;PMS5003;66627;29.424;-98.496;2023-02-14T15:30:06;12;12;
77515;PMS5003;66627;29.424;-98.496;2023-02-14T15:32:31;10;9;
77515;PMS5003;66627;29.424;-98.496;2023-02-14T15:34:56;7;7;
77515;PMS5003;66627;29.424;-98.496;2023-02-14T15:37:21;9;8;
77515;PMS5003;66627;29.424;-98.496;2023-02-14T15:39:48;9;8;
77515;PMS5003;66627;29.424;-98.496;2023-02-14T15:44:37;8;7;
77515;PMS5003;66627;29.424;-98.496;2023-02-14T15:47:02;5;5;
77515;PMS5003;66627;29.424;-98.496;2023-02-14T15:49:30;8;8;
77515;PMS5003;66627;29.424;-98.496;2023-02-14T15:51:52;7;7;
77515;PMS5003;66627;29.424;-98.496;2023-02-14T15:54:18;5;5;
77515;PMS5003;66627;29.424;-98.496;2023-02-14T15:56:43;6;6;
77515;PMS5003;66627;29.424;-98.496;2023-02-14T15:59:11;8;6;
77515;PMS5003;66627;29.424;-98.496;2023-02-14T16:01:34;7;7;
77515;PMS5003;66627;29.424;-98.496;2023-02-14T16:03:59;4;4;
77515;PMS5003;66627;29.424;-98.496;2023-02-14T16:06:30;7;5;
77515;PMS5003;66627;29.424;-98.496;2023-02-14T16:08:53;3;3;
77515;PMS5003;66627;29.424;-98.496;2023-02-14T16:11:24;5;5;
77515;PMS5003;66627;29.424;-98.496;2023-02-14T16:13:40;5;5;
77515;PMS5003;66627;29.424;-98.496;2023-02-14T16:16:05;4;4;
77515;PMS5003;66627;29.424;-98.496;2023-02-14T16:18:33;3;3;
77515;PMS5003;66627;29.424;-98.496;2023-02-14T16:20:55;7;7;
77515;PMS5003;66627;29.424;-98.496;2023-02-14T16:23:26;4;3;
77515;PMS5003;66627;29.424;-98.496;2023-02-14T16:25:46;4;4;
77515;PMS5003;66627;29.424;-98.496;2023-02-14T16:28:11;3;3;
77515;PMS5003;66627;29.424;-98.496;2023-02-14T16:30:36;6;4;
77515;PMS5003;66627;29.424;-98.496;2023-02-14T16:33:01;4;4;
77515;PMS5003;66627;29.424;-98.496;2023-02-14T16:35:26;3;3;
77515;PMS5003;66627;29.424;-98.496;2023-02-14T16:37:51;5;5;
77515;PMS5003;66627;29.424;-98.496;2023-02-14T16:40:16;3;3;
77515;PMS5003;66627;29.424;-98.496;2023-02-14T16:42:42;9;7;
77515;PMS5003;66627;29.424;-98.496;2023-02-14T16:45:09;4;4;
77515;PMS5003;66627;29.424;-98.496;2023-02-14T16:47:32;5;4;
77515;PMS5003;66627;29.424;-98.496;2023-02-14T16:49:57;4;4;
77515;PMS5003;66627;29.424;-98.496;2023-02-14T16:52:24;6;4;